Time;durP1;ratioP1;P1;durP2;ratioP2;P2;SDS_P1;SDS_P2;PMS_P1;PMS_P2;Temp;Humidity;BMP_temperature;BMP_pressure;BME280_temperature;BME280_humidity;BME280_pressure;Samples;Min_cycle;Max_cycle;Signal;HPM_P1;HPM_P2
2022/04/03 00:02:03;;;;;;;;;11.50;11.50;;;;;7.89;40.11;101784.31;4981656;28;45528;-71
2022/04/03 00:04:29;;;;;;;;;14.25;13.25;;;;;7.98;40.60;101788.69;4981572;28;45408;-71
2022/04/03 00:06:54;;;;;;;;;13.00;13.00;;;;;7.90;40.19;101783.44;4978850;28;45364;-71
2022/04/03 00:09:20;;;;;;;;;18.50;15.00;;;;;8.01;40.19;101801.09;4980014;28;45237;-71
2022/04/03 00:11:45;;;;;;;;;17.00;15.00;;;;;7.97;40.64;101800.25;4981672;28;45305;-71
2022/04/03 00:14:11;;;;;;;;;13.75;13.00;;;;;8.03;40.34;101809.94;4980642;28;46129;-71
2022/04/03 00:16:37;;;;;;;;;14.50;13.50;;;;;8.06;40.74;101800.19;4981383;28;45357;-71
2022/04/03 00:19:03;;;;;;;;;10.50;10.50;;;;;8.08;40.93;101806.38;4969714;28;45317;-71
2022/04/03 00:21:28;;;;;;;;;13.75;13.75;;;;;8.09;40.95;101799.28;4967655;28;45314;-71
2022/04/03 00:23:54;;;;;;;;;17.25;14.00;;;;;8.15;40.51;101808.13;4981433;28;46176;-71
2022/04/03 00:26:19;;;;;;;;;14.25;14.25;;;;;8.14;40.80;101808.13;4978719;28;45291;-71
2022/04/03 00:28:44;;;;;;;;;14.50;14.50;;;;;8.14;40.35;101808.13;4981715;28;45294;-71
2022/04/03 00:31:12;;;;;;;;;14.50;14.50;;;;;8.10;40.70;101796.63;4981350;28;45390;-71
2022/04/03 00:33:38;;;;;;;;;14.25;13.25;;;;;8.10;40.45;101809.00;4980823;28;46050;-71
2022/04/03 00:36:04;;;;;;;;;15.50;13.50;;;;;8.16;40.83;101815.19;4981145;28;45380;-71
2022/04/03 00:38:30;;;;;;;;;15.00;13.75;;;;;8.11;40.75;101797.50;4978507;28;45438;-71
2022/04/03 00:40:56;;;;;;;;;12.75;11.00;;;;;8.16;40.36;101817.84;4976886;28;45505;-71
2022/04/03 00:43:21;;;;;;;;;15.75;14.50;;;;;8.11;40.71;101810.81;4971712;28;46285;-71
2022/04/03 00:45:48;;;;;;;;;14.50;13.50;;;;;8.08;40.41;101801.03;4981145;28;45293;-71
2022/04/03 00:48:14;;;;;;;;;13.25;13.25;;;;;8.09;40.59;101807.28;4980936;28;45460;-71
2022/04/03 00:50:40;;;;;;;;;18.50;18.25;;;;;8.10;40.36;101807.25;4996102;28;45552;-71
2022/04/03 00:53:05;;;;;;;;;17.75;12.25;;;;;8.08;41.32;101803.69;4980836;28;46163;-71
2022/04/03 00:55:31;;;;;;;;;14.75;14.00;;;;;8.18;41.04;101809.88;4979402;28;45268;-73
2022/04/03 00:57:57;;;;;;;;;15.00;13.25;;;;;8.07;40.76;101795.72;4980055;28;45424;-71
2022/04/03 01:00:23;;;;;;;;;14.00;13.00;;;;;8.07;41.11;101796.63;4979219;28;45463;-71
2022/04/03 01:02:48;;;;;;;;;12.00;12.00;;;;;8.09;40.73;101801.94;4979228;28;47274;-71
2022/04/03 01:05:15;;;;;;;;;13.50;13.50;;;;;8.17;40.81;101802.78;4980808;28;45395;-71
2022/04/03 01:07:40;;;;;;;;;13.25;12.00;;;;;8.03;41.13;101786.88;4980948;28;45405;-71
2022/04/03 01:10:07;;;;;;;;;13.75;12.75;;;;;8.06;40.96;101801.97;4980730;28;45308;-71
2022/04/03 01:12:32;;;;;;;;;15.00;14.50;;;;;7.97;41.03;101800.25;4981035;28;45459;-71
2022/04/03 01:14:57;;;;;;;;;14.00;13.75;;;;;7.90;40.89;101801.13;4971653;28;45422;-72
2022/04/03 01:17:23;;;;;;;;;17.00;15.50;;;;;7.96;41.55;101803.78;4979429;28;45241;-71
2022/04/03 01:19:48;;;;;;;;;13.75;11.75;;;;;7.92;41.16;101794.06;4977723;28;45502;-71
2022/04/03 01:22:13;;;;;;;;;18.00;14.00;;;;;7.93;41.05;101798.47;4970690;28;45347;-71
2022/04/03 01:24:43;;;;;;;;;12.75;12.75;;;;;8.01;40.88;101801.97;4979370;28;45238;-71
2022/04/03 01:27:08;;;;;;;;;13.00;10.75;;;;;8.00;40.83;101797.53;4978104;28;45431;-71
2022/04/03 01:29:33;;;;;;;;;14.75;14.00;;;;;7.96;41.18;101796.66;4977323;28;45317;-71
2022/04/03 01:31:59;;;;;;;;;12.00;11.50;;;;;7.95;41.41;101807.31;4980301;28;45388;-71
2022/04/03 01:34:24;;;;;;;;;11.25;10.25;;;;;7.92;41.08;101799.38;4978562;28;45318;-71
2022/04/03 01:36:49;;;;;;;;;12.50;12.50;;;;;7.85;41.62;101800.28;4980604;28;45324;-71
2022/04/03 01:39:15;;;;;;;;;13.75;12.25;;;;;7.90;41.27;101798.47;4980300;28;45261;-71
2022/04/03 01:41:42;;;;;;;;;14.00;12.25;;;;;7.89;41.55;101805.56;4979078;28;48269;-71
2022/04/03 01:44:09;;;;;;;;;14.00;11.50;;;;;7.82;41.85;101792.31;4980180;28;45768;-71
2022/04/03 01:46:36;;;;;;;;;13.75;11.75;;;;;7.89;41.30;101804.69;4980511;28;45355;-71
2022/04/03 01:49:01;;;;;;;;;16.25;16.25;;;;;7.83;41.86;101807.38;4973573;28;45459;-71
2022/04/03 01:51:26;;;;;;;;;14.50;13.25;;;;;7.80;41.26;101800.28;4980147;28;45266;-71
2022/04/03 01:53:52;;;;;;;;;13.75;13.00;;;;;7.87;41.74;101802.03;4977901;28;45787;-71
2022/04/03 01:56:17;;;;;;;;;13.25;13.00;;;;;7.89;41.68;101796.72;4982607;28;45390;-71
2022/04/03 01:58:42;;;;;;;;;13.25;12.00;;;;;7.83;41.47;101797.63;4977154;28;45324;-71
2022/04/03 02:01:08;;;;;;;;;15.25;14.50;;;;;7.73;41.40;101803.88;4980263;28;45321;-71
2022/04/03 02:03:34;;;;;;;;;12.50;12.50;;;;;7.71;42.28;101801.22;4961197;28;45472;-71
2022/04/03 02:05:59;;;;;;;;;14.00;13.00;;;;;7.71;42.29;101805.66;4971462;28;45364;-71
2022/04/03 02:08:25;;;;;;;;;17.25;13.75;;;;;7.68;41.69;101789.72;4978693;28;45344;-71
2022/04/03 02:10:51;;;;;;;;;11.00;11.00;;;;;7.69;41.96;101803.00;4978695;28;48133;-71
2022/04/03 02:13:16;;;;;;;;;17.00;15.75;;;;;7.65;41.80;101795.03;4979992;28;45448;-71
2022/04/03 02:15:41;;;;;;;;;13.50;12.00;;;;;7.54;42.06;101782.66;4978678;28;45322;-71
2022/04/03 02:18:09;;;;;;;;;12.25;10.25;;;;;7.66;42.06;101799.47;4979800;28;45372;-71
2022/04/03 02:20:34;;;;;;;;;13.00;13.00;;;;;7.66;42.00;101792.38;4971014;28;45522;-71
2022/04/03 02:22:59;;;;;;;;;18.75;14.50;;;;;7.64;42.21;101782.66;4975986;28;45411;-71
2022/04/03 02:25:25;;;;;;;;;12.00;10.50;;;;;7.76;42.73;101791.44;4978035;28;45171;-71
2022/04/03 02:27:54;;;;;;;;;12.25;11.50;;;;;7.77;42.48;101795.00;4973511;28;45476;-71
2022/04/03 02:30:20;;;;;;;;;13.00;9.50;;;;;7.76;42.09;101802.06;4979754;28;45384;-71
2022/04/03 02:32:45;;;;;;;;;9.00;9.00;;;;;7.75;42.70;101804.72;4977997;28;45405;-71
2022/04/03 02:35:12;;;;;;;;;13.25;11.00;;;;;7.74;42.31;101802.97;4979992;28;45348;-71
2022/04/03 02:37:39;;;;;;;;;13.75;11.00;;;;;7.73;42.40;101795.88;4970127;28;45272;-71
2022/04/03 02:40:07;;;;;;;;;13.50;11.75;;;;;7.76;42.87;101802.06;4973102;28;46183;-71
2022/04/03 02:42:33;;;;;;;;;18.50;14.00;;;;;7.71;42.35;101800.34;4983021;28;45340;-71
2022/04/03 02:44:58;;;;;;;;;12.75;12.00;;;;;7.69;42.00;101796.81;4983582;28;45308;-71
2022/04/03 02:47:24;;;;;;;;;12.50;12.50;;;;;7.65;42.19;101806.56;4982720;28;45524;-71
2022/04/03 02:49:50;;;;;;;;;17.25;13.00;;;;;7.61;42.42;101794.16;4983014;28;46264;-71
2022/04/03 02:52:16;;;;;;;;;9.50;9.50;;;;;7.68;42.27;101803.00;4982701;28;45335;-71
2022/04/03 02:54:44;;;;;;;;;13.00;12.00;;;;;7.61;42.34;101794.16;4983058;28;45339;-71
2022/04/03 02:57:10;;;;;;;;;13.50;12.75;;;;;7.50;42.15;101783.59;4980600;28;45448;-71
2022/04/03 02:59:35;;;;;;;;;16.00;13.00;;;;;7.55;42.63;101794.16;4978263;28;47091;-71
2022/04/03 03:02:01;;;;;;;;;13.00;12.50;;;;;7.62;42.95;101801.25;4979706;28;45307;-71
2022/04/03 03:04:26;;;;;;;;;15.00;14.00;;;;;7.66;42.31;101803.00;4975785;28;45372;-71
2022/04/03 03:06:51;;;;;;;;;12.00;12.00;;;;;7.65;42.45;101808.31;4982160;28;45273;-71
2022/04/03 03:09:17;;;;;;;;;12.25;12.00;;;;;7.64;43.19;101810.09;4980745;28;47065;-71
2022/04/03 03:11:43;;;;;;;;;13.50;13.50;;;;;7.64;42.63;101803.91;4982437;28;45332;-72
2022/04/03 03:14:08;;;;;;;;;13.50;13.00;;;;;7.64;42.85;101804.78;4982793;28;45481;-71
2022/04/03 03:16:33;;;;;;;;;12.75;12.50;;;;;7.61;42.93;101794.16;4981648;28;45418;-71
2022/04/03 03:18:59;;;;;;;;;12.00;11.00;;;;;7.74;43.05;101810.97;4981572;28;46159;-71
2022/04/03 03:21:25;;;;;;;;;15.50;11.75;;;;;7.74;43.23;101819.81;4969392;28;45373;-71
2022/04/03 03:23:51;;;;;;;;;14.50;13.75;;;;;7.77;42.74;101825.13;4982657;28;45431;-71
2022/04/03 03:26:16;;;;;;;;;12.00;12.00;;;;;7.77;43.02;101824.25;4981222;28;45371;-71
2022/04/03 03:28:42;;;;;;;;;14.25;13.75;;;;;7.76;43.08;101828.66;4982349;28;45991;-71
2022/04/03 03:31:07;;;;;;;;;12.75;11.75;;;;;7.74;42.99;101819.81;4980728;28;45368;-71
2022/04/03 03:33:33;;;;;;;;;14.25;12.75;;;;;7.82;42.56;101832.19;4977190;28;45356;-71
2022/04/03 03:35:59;;;;;;;;;12.25;8.00;;;;;7.76;42.79;101825.13;4982210;28;45587;-71
2022/04/03 03:38:24;;;;;;;;;12.00;11.75;;;;;7.72;43.23;101818.94;4980804;28;47222;-71
2022/04/03 03:40:50;;;;;;;;;14.50;12.50;;;;;7.60;43.13;101809.22;4982087;28;45184;-71
2022/04/03 03:43:16;;;;;;;;;11.00;11.00;;;;;7.64;43.19;101826.03;4980718;28;45301;-71
2022/04/03 03:45:41;;;;;;;;;12.75;10.25;;;;;7.63;43.22;101828.72;4978820;28;45534;-71
2022/04/03 03:48:10;;;;;;;;;11.50;11.00;;;;;7.66;43.72;101829.56;4963315;28;45444;-71
2022/04/03 03:50:36;;;;;;;;;13.25;12.25;;;;;7.63;43.12;101820.72;4979122;28;45778;-71
2022/04/03 03:53:01;;;;;;;;;11.75;11.75;;;;;7.51;42.83;101816.34;4980971;28;45411;-71
2022/04/03 03:55:27;;;;;;;;;12.25;9.00;;;;;7.57;42.98;101833.16;4977860;28;45258;-71
2022/04/03 03:57:52;;;;;;;;;13.00;12.00;;;;;7.57;43.07;101832.28;4974266;28;45349;-71
2022/04/03 04:00:18;;;;;;;;;11.75;10.50;;;;;7.44;43.08;101818.13;4981764;28;45365;-71
2022/04/03 04:02:43;;;;;;;;;13.25;12.25;;;;;7.47;43.39;101835.81;4976562;28;45214;-71
2022/04/03 04:05:09;;;;;;;;;15.50;11.50;;;;;7.46;43.42;101832.28;4979114;28;45482;-71
2022/04/03 04:07:43;;;;;;;;;12.25;11.00;;;;;7.44;43.23;101825.22;4981538;28;45312;-71
2022/04/03 04:10:12;;;;;;;;;13.00;11.25;;;;;7.51;43.84;101832.28;4980878;28;45183;-71
2022/04/03 04:12:39;;;;;;;;;11.50;11.50;;;;;7.51;43.26;101826.97;4982059;28;45308;-71
2022/04/03 04:15:05;;;;;;;;;15.25;12.50;;;;;7.57;43.05;101827.84;4980191;28;45588;-71
2022/04/03 04:17:39;;;;;;;;;10.75;10.25;;;;;7.57;43.45;101833.16;4981247;28;46242;-71
2022/04/03 04:20:05;;;;;;;;;15.00;13.25;;;;;7.53;43.00;101831.38;4976732;28;45387;-71
2022/04/03 04:22:31;;;;;;;;;17.00;10.00;;;;;7.57;43.51;101843.78;4973225;28;45465;-71
2022/04/03 04:24:56;;;;;;;;;10.75;9.25;;;;;7.56;43.31;101847.31;4978971;28;45435;-71
2022/04/03 04:27:22;;;;;;;;;7.25;7.25;;;;;7.53;43.61;101826.06;4981273;28;47956;-71
2022/04/03 04:29:47;;;;;;;;;12.75;12.50;;;;;7.58;43.18;101850.88;4980606;28;45281;-72
2022/04/03 04:32:13;;;;;;;;;14.50;8.00;;;;;7.40;43.58;101829.63;4981362;28;45277;-71
2022/04/03 04:34:39;;;;;;;;;13.75;12.00;;;;;7.49;43.00;101850.88;4981129;28;45472;-71
2022/04/03 04:37:04;;;;;;;;;9.50;9.50;;;;;7.41;43.38;101848.22;4980666;28;46532;-71
2022/04/03 04:39:31;;;;;;;;;1.50;0.00;;;;;7.32;43.47;101840.28;4979692;28;45411;-71
2022/04/03 04:41:57;;;;;;;;;11.50;10.25;;;;;7.42;43.02;101859.75;4980215;28;45255;-71
2022/04/03 04:44:22;;;;;;;;;12.00;12.00;;;;;7.37;43.61;101848.25;4981101;28;45334;-71
2022/04/03 04:46:48;;;;;;;;;11.75;11.75;;;;;7.38;43.14;101853.56;4969546;28;45474;-71
2022/04/03 04:49:15;;;;;;;;;13.00;12.75;;;;;7.32;43.55;101848.25;4980093;28;45404;-71
2022/04/03 04:51:41;;;;;;;;;9.00;7.75;;;;;7.26;43.32;101842.06;4980690;28;45301;-71
2022/04/03 04:54:06;;;;;;;;;12.25;11.00;;;;;7.32;43.91;101848.25;4978108;28;45313;-71
2022/04/03 04:56:33;;;;;;;;;14.50;12.00;;;;;7.41;43.66;101863.28;4978449;28;47210;-71
2022/04/03 04:58:59;;;;;;;;;8.75;8.00;;;;;7.32;42.80;101852.69;4994288;28;45242;-71
2022/04/03 05:01:24;;;;;;;;;13.25;9.25;;;;;7.23;43.54;101851.81;4979815;28;45518;-71
2022/04/03 05:03:49;;;;;;;;;9.00;9.00;;;;;7.26;43.27;101864.19;4980600;28;45269;-71
2022/04/03 05:06:15;;;;;;;;;11.00;9.00;;;;;7.27;43.43;101865.06;4978622;28;46070;-71
2022/04/03 05:08:42;;;;;;;;;12.50;9.25;;;;;7.28;43.94;101864.19;4980884;28;45254;-71
2022/04/03 05:11:07;;;;;;;;;13.25;11.25;;;;;7.34;43.12;101869.50;4981112;28;45339;-71
2022/04/03 05:13:33;;;;;;;;;8.75;8.75;;;;;7.26;43.56;101858.88;4980782;28;45368;-71
2022/04/03 05:15:58;;;;;;;;;11.50;10.00;;;;;7.33;43.70;101873.91;4979813;28;46103;-71
2022/04/03 05:18:24;;;;;;;;;12.25;12.25;;;;;7.30;43.91;101871.28;4980389;28;45395;-71
2022/04/03 05:20:49;;;;;;;;;12.25;9.75;;;;;7.27;43.66;101870.38;4969892;28;45464;-71
2022/04/03 05:23:15;;;;;;;;;9.25;8.75;;;;;7.24;43.31;101863.31;4975699;28;45222;-71
2022/04/03 05:25:40;;;;;;;;;8.25;8.25;;;;;7.25;43.54;101873.06;4973254;28;46272;-71
2022/04/03 05:28:08;;;;;;;;;11.00;11.00;;;;;7.20;44.08;101872.16;4980589;28;45308;-71
2022/04/03 05:30:34;;;;;;;;;10.00;8.75;;;;;7.15;43.90;101888.09;4978752;28;45454;-71
2022/04/03 05:32:59;;;;;;;;;9.25;9.25;;;;;7.02;43.86;101878.38;4978352;28;45533;-71
2022/04/03 05:35:25;;;;;;;;;10.75;10.75;;;;;7.04;43.70;101880.13;4980508;28;46418;-71
2022/04/03 05:37:50;;;;;;;;;12.00;9.25;;;;;7.05;43.63;101881.03;4980341;28;45501;-71
2022/04/03 05:40:15;;;;;;;;;13.25;12.00;;;;;7.12;43.56;101896.06;4980749;28;45474;-71
2022/04/03 05:42:41;;;;;;;;;11.75;11.00;;;;;7.10;43.72;101888.97;4980383;28;45209;-71
2022/04/03 05:45:08;;;;;;;;;12.25;12.25;;;;;7.09;43.91;101892.53;4974761;28;46051;-71
2022/04/03 05:47:33;;;;;;;;;17.00;11.00;;;;;7.15;43.85;101895.16;4980124;28;45389;-71
2022/04/03 05:49:58;;;;;;;;;11.00;11.00;;;;;7.11;43.63;101906.69;4979136;28;45515;-71
2022/04/03 05:52:24;;;;;;;;;13.00;11.25;;;;;7.03;43.46;101893.38;4979402;28;46489;-71
2022/04/03 05:54:50;;;;;;;;;10.25;10.25;;;;;7.02;44.11;101904.91;4976335;28;46083;-71
2022/04/03 05:57:15;;;;;;;;;13.00;9.75;;;;;7.05;44.03;101900.47;4977967;28;45382;-71
2022/04/03 05:59:40;;;;;;;;;10.75;9.50;;;;;6.98;43.44;101890.75;4980397;28;45387;-71
2022/04/03 06:02:07;;;;;;;;;17.75;12.75;;;;;7.08;43.83;101902.25;4968872;28;45299;-71
2022/04/03 06:04:33;;;;;;;;;12.25;11.25;;;;;7.03;44.18;101899.59;4975466;28;47149;-71
2022/04/03 06:06:58;;;;;;;;;11.00;8.25;;;;;7.07;43.30;101896.94;4978945;28;45619;-71
2022/04/03 06:09:23;;;;;;;;;13.00;13.00;;;;;6.99;43.46;101911.09;4980247;28;45275;-71
2022/04/03 06:11:49;;;;;;;;;12.50;11.50;;;;;6.90;43.88;101908.44;4975938;28;45537;-71
2022/04/03 06:14:14;;;;;;;;;13.25;13.00;;;;;6.91;43.55;101914.63;4975765;28;46047;-71
2022/04/03 06:16:40;;;;;;;;;11.50;11.50;;;;;6.82;43.47;101905.75;4983228;28;45222;-71
2022/04/03 06:19:05;;;;;;;;;9.50;9.50;;;;;6.85;43.38;101913.72;4983506;28;45293;-71
2022/04/03 06:21:31;;;;;;;;;8.75;6.75;;;;;6.88;43.48;101914.63;4969984;28;45232;-71
2022/04/03 06:23:56;;;;;;;;;12.25;12.25;;;;;6.93;43.84;101924.34;4982984;28;45341;-71
2022/04/03 06:26:22;;;;;;;;;16.50;12.25;;;;;6.89;43.62;101919.06;4982535;28;45352;-71
2022/04/03 06:28:47;;;;;;;;;14.50;11.75;;;;;6.98;43.65;101930.56;4982121;28;45320;-71
2022/04/03 06:31:12;;;;;;;;;11.75;10.00;;;;;6.96;43.56;101927.00;4983034;28;45321;-71
2022/04/03 06:33:38;;;;;;;;;12.00;10.50;;;;;7.01;43.25;101941.16;4981917;28;47765;-71
2022/04/03 06:36:03;;;;;;;;;11.75;10.50;;;;;6.97;43.70;101939.41;4980871;28;45305;-71
2022/04/03 06:38:29;;;;;;;;;11.00;10.75;;;;;6.97;43.33;101938.53;4981957;28;45398;-71
2022/04/03 06:40:57;;;;;;;;;12.25;11.00;;;;;6.97;43.31;101947.38;4982298;28;45333;-71
2022/04/03 06:43:26;;;;;;;;;11.00;11.00;;;;;6.91;43.05;101943.81;4979264;28;45467;-71
2022/04/03 06:45:53;;;;;;;;;11.00;10.75;;;;;6.86;43.26;101950.00;4982821;28;45459;-70
2022/04/03 06:48:19;;;;;;;;;12.75;10.25;;;;;6.83;43.57;101952.66;4983071;28;45305;-71
2022/04/03 06:50:45;;;;;;;;;12.25;11.00;;;;;6.79;43.12;101953.53;4984899;28;46149;-71
2022/04/03 06:53:11;;;;;;;;;12.50;11.25;;;;;6.73;43.37;101948.19;4975270;28;45455;-71
2022/04/03 06:55:36;;;;;;;;;17.50;12.00;;;;;6.72;42.99;101961.47;4980607;28;46046;-71
2022/04/03 06:58:03;;;;;;;;;12.00;12.00;;;;;6.66;42.89;101963.19;4982929;28;45334;-71
2022/04/03 07:00:28;;;;;;;;;15.50;12.50;;;;;6.64;43.23;101959.66;4982762;28;45566;-71
2022/04/03 07:02:54;;;;;;;;;11.00;10.00;;;;;6.65;43.91;101966.75;4982519;28;46070;-71
2022/04/03 07:05:20;;;;;;;;;11.50;11.50;;;;;6.62;43.49;101957.91;4981781;28;45412;-71
2022/04/03 07:07:45;;;;;;;;;14.50;12.25;;;;;6.53;42.78;101949.91;4978917;28;45388;-71
2022/04/03 07:10:11;;;;;;;;;10.50;9.00;;;;;6.57;43.14;101962.31;4980564;28;45826;-71
2022/04/03 07:12:37;;;;;;;;;11.25;11.25;;;;;6.62;43.28;101976.47;4972226;28;45727;-71
2022/04/03 07:15:04;;;;;;;;;13.00;11.00;;;;;6.50;43.24;101982.63;4979321;28;45878;-71
2022/04/03 07:17:29;;;;;;;;;11.50;10.25;;;;;6.49;42.96;101981.72;4978643;28;45273;-71
2022/04/03 07:19:54;;;;;;;;;13.75;12.00;;;;;6.47;43.21;101972.88;4974431;28;45389;-71
2022/04/03 07:22:20;;;;;;;;;8.00;6.00;;;;;6.53;43.92;101979.97;4979825;28;46979;-72
2022/04/03 07:24:45;;;;;;;;;15.00;13.75;;;;;6.47;43.37;101967.56;4983391;28;45340;-69
2022/04/03 07:27:11;;;;;;;;;11.75;11.75;;;;;6.49;42.96;101970.22;4983439;28;45361;-71
2022/04/03 07:29:36;;;;;;;;;11.75;11.00;;;;;6.60;43.09;101986.16;4986146;28;47062;-71
2022/04/03 07:32:02;;;;;;;;;14.00;10.50;;;;;6.63;43.40;101975.56;4980495;28;45467;-71
2022/04/03 07:34:27;;;;;;;;;11.25;9.75;;;;;6.68;43.44;101995.06;4993678;28;45365;-71
2022/04/03 07:36:52;;;;;;;;;15.25;12.75;;;;;6.68;43.07;101988.00;4984260;28;45907;-72
2022/04/03 07:39:18;;;;;;;;;11.50;10.50;;;;;6.70;43.56;101993.31;4979638;28;45642;-71
2022/04/03 07:41:43;;;;;;;;;12.00;12.00;;;;;6.61;43.78;101964.97;4981134;28;47145;-71
2022/04/03 07:44:10;;;;;;;;;11.50;10.00;;;;;6.81;43.42;101994.22;4982041;28;45330;-71
2022/04/03 07:46:36;;;;;;;;;13.25;10.50;;;;;6.74;42.92;101965.91;4982177;28;45483;-71
2022/04/03 07:49:03;;;;;;;;;10.75;8.00;;;;;6.94;42.44;101995.16;4977122;28;45536;-71
2022/04/03 07:51:29;;;;;;;;;9.00;9.00;;;;;6.96;43.39;101990.72;4973614;28;45242;-71
2022/04/03 07:53:55;;;;;;;;;13.25;11.75;;;;;7.03;42.71;101992.53;4981748;28;45315;-72
2022/04/03 07:56:21;;;;;;;;;11.75;9.25;;;;;7.11;42.54;101995.19;4981950;28;45646;-71
2022/04/03 07:58:46;;;;;;;;;13.00;9.25;;;;;7.10;43.00;101982.81;4977250;28;45550;-73
2022/04/03 08:01:12;;;;;;;;;9.25;8.50;;;;;7.17;42.87;101981.94;4975032;28;47241;-73
2022/04/03 08:03:37;;;;;;;;;9.25;9.25;;;;;7.28;42.87;101995.22;4981681;28;45295;-73
2022/04/03 08:06:04;;;;;;;;;11.00;10.75;;;;;7.34;42.72;101995.22;4983928;28;45432;-70
2022/04/03 08:08:30;;;;;;;;;9.50;8.00;;;;;7.38;42.47;102002.34;4969990;28;45180;-70
2022/04/03 08:10:56;;;;;;;;;7.50;7.00;;;;;7.37;41.91;101999.66;4981103;28;46003;-70
2022/04/03 08:13:21;;;;;;;;;11.25;9.25;;;;;7.45;42.08;102020.91;4981639;28;45291;-70
2022/04/03 08:15:47;;;;;;;;;14.00;9.25;;;;;7.40;41.62;102005.88;4981476;28;45282;-69
2022/04/03 08:18:12;;;;;;;;;11.75;9.25;;;;;7.42;41.53;102013.84;4967772;28;45148;-71
2022/04/03 08:20:38;;;;;;;;;12.00;11.25;;;;;7.35;41.07;102004.97;4980575;28;45447;-71
2022/04/03 08:23:05;;;;;;;;;8.25;8.25;;;;;7.26;41.83;101996.97;4980766;28;45894;-71
2022/04/03 08:25:31;;;;;;;;;11.00;11.00;;;;;7.21;41.76;102001.41;4970526;28;45380;-71
2022/04/03 08:27:57;;;;;;;;;11.25;11.25;;;;;7.29;41.98;102014.72;4980537;28;45397;-71
2022/04/03 08:30:40;;;;;;;;;10.00;10.00;;;;;7.26;42.04;101998.75;4975731;28;45957;-71
2022/04/03 08:33:06;;;;;;;;;8.50;8.25;;;;;7.45;41.35;102015.59;4987282;28;45950;-71
2022/04/03 08:35:37;;;;;;;;;9.25;7.75;;;;;7.41;41.54;102012.94;4978694;28;45446;-71
2022/04/03 08:38:04;;;;;;;;;7.00;7.00;;;;;7.42;41.16;102014.72;4974598;28;45561;-71
2022/04/03 08:40:30;;;;;;;;;7.50;7.50;;;;;7.46;41.16;102023.56;4976865;28;45409;-71
2022/04/03 08:42:56;;;;;;;;;8.00;8.00;;;;;7.45;41.19;102021.81;4979770;28;45606;-71
2022/04/03 08:45:22;;;;;;;;;8.00;7.25;;;;;7.42;41.60;102005.88;4978413;28;45579;-71
2022/04/03 08:47:49;;;;;;;;;7.75;6.75;;;;;7.55;42.01;102023.59;4977634;28;45487;-71
2022/04/03 08:50:16;;;;;;;;;7.50;7.50;;;;;7.49;40.76;102006.75;4978699;28;45440;-72
2022/04/03 08:52:47;;;;;;;;;7.75;7.00;;;;;7.52;41.28;102012.09;4969284;28;45333;-71
2022/04/03 08:55:14;;;;;;;;;7.00;7.00;;;;;7.52;41.37;102010.31;4975581;28;45460;-71
2022/04/03 08:57:39;;;;;;;;;7.00;7.00;;;;;7.46;41.12;101983.72;4994946;28;45426;-71
2022/04/03 09:00:06;;;;;;;;;6.75;6.75;;;;;7.61;40.84;102020.91;4980276;28;46101;-73
2022/04/03 09:02:31;;;;;;;;;1.00;1.00;;;;;7.64;41.56;102030.69;4979636;28;45329;-72
2022/04/03 09:04:56;;;;;;;;;6.00;6.00;;;;;7.68;40.08;102019.16;4980028;28;45819;-73
2022/04/03 09:07:22;;;;;;;;;8.25;7.75;;;;;7.63;40.17;102002.31;4978742;28;45664;-72
2022/04/03 09:09:58;;;;;;;;;8.00;7.50;;;;;7.74;40.71;102013.84;4979850;28;46006;-73
2022/04/03 09:12:23;;;;;;;;;7.75;6.50;;;;;7.78;40.39;102015.63;4978927;28;45334;-71
2022/04/03 09:14:51;;;;;;;;;7.50;7.00;;;;;7.87;40.29;102013.81;4979849;28;45455;-71
2022/04/03 09:17:38;;;;;;;;;7.00;5.75;;;;;7.95;40.25;102007.63;4978605;28;46396;-71
2022/04/03 09:20:06;;;;;;;;;7.50;6.50;;;;;7.92;39.70;102014.72;4983200;28;47212;-73
2022/04/03 09:22:35;;;;;;;;;6.50;6.50;;;;;7.89;39.40;101999.66;4974697;28;45804;-73
2022/04/03 09:25:01;;;;;;;;;4.50;4.50;;;;;8.02;39.80;102024.47;4976677;28;45496;-73
2022/04/03 09:27:26;;;;;;;;;3.50;3.50;;;;;8.07;39.79;102014.69;4977116;28;46038;-70
2022/04/03 09:30:07;;;;;;;;;4.00;4.00;;;;;8.08;39.02;102012.91;4975541;28;46186;-70
2022/04/03 09:32:33;;;;;;;;;5.50;5.50;;;;;8.10;38.66;102014.69;4975493;28;45351;-70
2022/04/03 09:34:59;;;;;;;;;7.50;5.50;;;;;8.16;38.67;102016.44;4971971;28;46001;-68
2022/04/03 09:37:26;;;;;;;;;4.50;4.50;;;;;8.22;38.61;102027.09;4977997;28;45522;-70
2022/04/03 09:39:52;;;;;;;;;3.25;3.25;;;;;8.23;38.35;102028.84;4978912;28;45969;-71
2022/04/03 09:42:18;;;;;;;;;3.00;3.00;;;;;8.11;37.43;102003.16;4978265;28;45813;-70
2022/04/03 09:44:45;;;;;;;;;5.50;2.50;;;;;8.16;37.74;102008.47;4978946;28;45467;-70
2022/04/03 09:47:30;;;;;;;;;3.50;2.25;;;;;8.15;36.84;102010.25;4974593;28;45484;-71
2022/04/03 09:50:06;;;;;;;;;2.00;2.00;;;;;8.15;36.29;102017.34;4974006;28;45507;-71
2022/04/03 09:52:33;;;;;;;;;3.25;2.25;;;;;8.10;36.50;102012.03;4978631;28;45915;-70
2022/04/03 09:54:59;;;;;;;;;2.00;2.00;;;;;8.04;36.31;102017.38;4978665;28;45862;-70
2022/04/03 09:57:25;;;;;;;;;2.00;2.00;;;;;8.13;36.29;102020.00;4972263;28;45460;-71
2022/04/03 09:59:53;;;;;;;;;1.50;1.50;;;;;8.18;35.58;102017.31;4970816;28;46156;-72
2022/04/03 10:02:19;;;;;;;;;1.00;1.00;;;;;8.12;35.81;101993.44;4978648;28;45391;-72
2022/04/03 10:04:46;;;;;;;;;1.75;0.00;;;;;8.14;35.52;101994.31;4975518;28;45654;-66
2022/04/03 10:07:13;;;;;;;;;1.25;1.25;;;;;8.28;35.62;102008.44;4970011;28;45411;-66
2022/04/03 10:09:51;;;;;;;;;4.00;1.00;;;;;8.29;34.13;102007.56;4978601;28;46972;-68
2022/04/03 10:12:18;;;;;;;;;1.00;1.00;;;;;8.26;35.40;102001.38;4978897;28;45772;-68
2022/04/03 10:14:50;;;;;;;;;0.00;0.00;;;;;8.19;35.67;101987.19;4977516;28;45398;-70
2022/04/03 10:17:17;;;;;;;;;0.50;0.50;;;;;8.37;35.04;102020.84;4978409;28;45697;-67
2022/04/03 10:19:42;;;;;;;;;1.50;1.00;;;;;8.31;34.09;102012.88;4977033;28;45603;-69
2022/04/03 10:22:27;;;;;;;;;2.00;2.00;;;;;8.29;34.69;102012.00;4968348;28;45478;-70
2022/04/03 10:24:59;;;;;;;;;1.75;1.75;;;;;8.34;34.87;102003.09;4977738;28;45379;-68
2022/04/03 10:27:30;;;;;;;;;1.75;1.00;;;;;8.35;34.93;102009.31;4979244;28;45447;-69
2022/04/03 10:29:58;;;;;;;;;3.00;3.00;;;;;8.41;34.98;102003.97;4976088;28;46301;-70
2022/04/03 10:32:27;;;;;;;;;1.25;1.00;;;;;8.45;34.94;101989.81;4977098;28;45514;-68
2022/04/03 10:34:56;;;;;;;;;3.25;1.25;;;;;8.51;34.75;102000.41;4967602;28;45264;-68
2022/04/03 10:37:33;;;;;;;;;2.50;1.25;;;;;8.55;34.56;101998.63;4979705;28;45618;-69
2022/04/03 10:40:17;;;;;;;;;1.75;1.75;;;;;8.55;35.01;102003.94;4978564;28;46136;-68
2022/04/03 10:42:49;;;;;;;;;1.75;1.00;;;;;8.63;35.32;102004.81;4979542;28;45782;-68
2022/04/03 10:45:15;;;;;;;;;2.75;2.00;;;;;8.70;35.10;102003.00;4979975;28;45230;-67
2022/04/03 10:47:43;;;;;;;;;3.00;3.00;;;;;8.67;34.90;101992.34;4977110;28;45670;-70
2022/04/03 10:50:11;;;;;;;;;3.00;2.00;;;;;8.67;34.80;101998.59;4991405;28;48221;-69
2022/04/03 10:52:36;;;;;;;;;0.00;0.00;;;;;8.70;34.76;102000.34;4967171;28;45329;-70
2022/04/03 10:55:11;;;;;;;;;2.75;2.50;;;;;8.75;34.49;101989.69;4978141;28;45436;-68
2022/04/03 10:57:42;;;;;;;;;3.25;2.00;;;;;8.84;34.45;101990.53;4974685;28;45298;-68
2022/04/03 11:00:14;;;;;;;;;6.75;4.75;;;;;8.81;34.21;101993.19;4982050;28;45295;-68
2022/04/03 11:02:40;;;;;;;;;4.50;3.00;;;;;8.72;34.46;101982.59;4980481;28;45706;-67
2022/04/03 11:05:21;;;;;;;;;2.50;2.50;;;;;8.85;34.28;102000.28;4980916;28;45427;-68
2022/04/03 11:07:50;;;;;;;;;3.00;1.75;;;;;8.82;34.64;101984.31;4990302;28;45494;-72
2022/04/03 11:10:35;;;;;;;;;3.75;3.75;;;;;8.85;33.79;101986.06;4977774;28;47707;-71
2022/04/03 11:13:01;;;;;;;;;2.50;2.50;;;;;8.79;34.76;101968.38;4969835;28;45443;-71
2022/04/03 11:15:26;;;;;;;;;2.50;2.50;;;;;8.87;34.53;101982.53;4978582;28;45837;-71
2022/04/03 11:17:53;;;;;;;;;3.25;2.25;;;;;8.86;33.95;101971.88;4978222;28;45445;-69
2022/04/03 11:20:42;;;;;;;;;2.75;1.50;;;;;8.86;34.16;101961.22;4972022;28;45872;-67